.
WxDataArchive / Data Records for 2010-07-15
2010-07-14 July 2010 2010-07-16

Data Records for Thursday, 15 July 2010

Time	Temp	Chill	HIndex	Humid	Dewpt	 Wind 	HiWind	WindDir	Rain 	Barom 
-----	----	-----	------	-----	-----	------	------	-------	-----	----- 
00:00	75.6	75.6	76.6	78	68.2	0	1	90	0.00	29.969 
00:05	75.4	75.4	76.3	78	68.0	0	0	---	0.00	29.969 
00:10	75.3	75.3	76.2	78	68.0	0	0	---	0.00	29.969 
00:15	75.1	75.1	76.0	78	67.8	0	0	---	0.00	29.981 
00:20	74.9	74.9	74.9	78	67.6	0	0	---	0.00	29.981 
00:25	74.6	74.6	74.6	79	67.6	0	0	---	0.00	29.981 
00:30	74.6	74.6	74.6	79	67.6	0	0	---	0.00	29.985 
00:35	74.4	74.4	74.4	79	67.4	0	0	---	0.00	29.985 
00:40	74.2	74.2	74.2	80	67.6	0	0	---	0.00	29.985 
00:45	74.0	74.0	74.0	80	67.4	0	0	---	0.00	29.979 
00:50	73.9	73.9	73.9	80	67.3	0	0	---	0.00	29.979 
00:55	73.7	73.7	73.7	81	67.5	0	0	---	0.00	29.979 
01:00	73.7	73.7	73.7	80	67.1	0	0	---	0.00	29.985 
01:05	73.5	73.5	73.5	80	66.9	0	0	---	0.00	29.985 
01:10	73.5	73.5	73.5	80	66.9	0	0	---	0.00	29.985 
01:15	73.5	73.5	73.5	80	66.9	0	0	---	0.00	29.994 
01:20	73.3	73.3	73.3	80	66.7	0	0	---	0.00	29.994 
01:25	73.3	73.3	73.3	81	67.1	0	0	---	0.00	29.994 
01:30	73.2	73.2	73.2	81	67.0	0	0	---	0.00	30.011 
01:35	73.2	73.2	73.2	81	67.0	0	0	---	0.00	30.011 
01:40	73.0	73.0	73.0	81	66.8	0	0	---	0.00	30.011 
01:45	73.0	73.0	73.0	81	66.8	0	0	---	0.00	30.018 
01:50	73.0	73.0	73.0	82	67.2	0	0	---	0.00	30.018 
01:55	72.8	72.8	72.8	82	67.0	0	0	---	0.00	30.018 
02:00	72.8	72.8	72.8	82	67.0	0	0	---	0.00	30.024 
02:05	72.7	72.7	72.7	82	66.9	0	0	---	0.00	30.024 
02:10	72.7	72.7	72.7	82	66.9	0	0	---	0.00	30.024 
02:15	72.7	72.7	72.7	83	67.2	0	0	---	0.00	30.017 
02:20	72.5	72.5	72.5	83	67.0	0	0	---	0.00	30.017 
02:25	72.5	72.5	72.5	83	67.0	0	0	---	0.00	30.017 
02:30	72.5	72.5	72.5	83	67.0	0	0	---	0.00	30.009 
02:35	72.7	72.7	72.7	83	67.2	0	0	---	0.00	30.009 
02:40	72.8	72.8	72.8	83	67.3	0	0	---	0.00	30.009 
02:45	73.0	73.0	73.0	82	67.2	0	0	---	0.00	30.013 
02:50	73.0	73.0	73.0	82	67.2	0	0	---	0.00	30.013 
02:55	73.2	73.2	73.2	82	67.4	0	0	---	0.00	30.013 
03:00	73.2	73.2	73.2	82	67.4	0	1	90	0.00	30.010 
03:05	73.3	73.3	73.3	83	67.8	0	0	---	0.00	30.010 
03:10	73.3	73.3	73.3	83	67.8	0	0	---	0.00	30.010 
03:15	73.5	73.5	73.5	82	67.7	0	0	---	0.00	30.010 
03:20	73.7	73.7	73.7	82	67.9	0	0	---	0.00	30.010 
03:25	73.7	73.7	73.7	82	67.9	0	1	90	0.00	30.010 
03:30	73.7	73.7	73.7	82	67.9	0	0	---	0.00	30.010 
03:35	73.7	73.7	73.7	83	68.2	0	0	---	0.00	30.010 
03:40	73.7	73.7	73.7	83	68.2	0	0	---	0.00	30.010 
03:45	73.7	73.7	73.7	83	68.2	0	0	---	0.00	30.009 
03:50	73.7	73.7	73.7	83	68.2	0	0	---	0.00	30.009 
03:55	73.5	73.5	73.5	83	68.0	0	0	---	0.00	30.009 
04:00	73.5	73.5	73.5	83	68.0	0	0	---	0.00	30.012 
04:05	73.5	73.5	73.5	83	68.0	0	0	---	0.00	30.012 
04:10	73.5	73.5	73.5	84	68.4	0	0	---	0.00	30.012 
04:15	73.5	73.5	73.5	84	68.4	0	0	---	0.00	30.015 
04:20	73.3	73.3	73.3	84	68.2	0	0	---	0.00	30.015 
04:25	73.3	73.3	73.3	84	68.2	0	1	90	0.00	30.015 
04:30	73.3	73.3	73.3	84	68.2	0	0	---	0.00	30.019 
04:35	73.2	73.2	73.2	84	68.1	0	0	---	0.00	30.019 
04:40	73.2	73.2	73.2	85	68.4	0	0	---	0.00	30.019 
04:45	73.0	73.0	73.0	85	68.2	0	0	---	0.00	30.016 
04:50	73.0	73.0	73.0	86	68.6	0	0	---	0.00	30.016 
04:55	73.0	73.0	73.0	86	68.6	0	0	---	0.00	30.016 
05:00	73.0	73.0	73.0	86	68.6	0	0	---	0.00	30.006 
05:05	72.8	72.8	72.8	86	68.4	0	0	---	0.00	30.006 
05:10	72.8	72.8	72.8	86	68.4	0	0	---	0.00	30.006 
05:15	72.7	72.7	72.7	86	68.3	0	0	---	0.00	30.010 
05:20	72.5	72.5	72.5	87	68.4	0	0	---	0.00	30.010 
05:25	72.5	72.5	72.5	87	68.4	0	0	---	0.00	30.010 
05:30	72.3	72.3	72.3	87	68.2	0	0	---	0.00	30.004 
05:35	72.1	72.1	72.1	87	68.0	0	0	---	0.00	30.004 
05:40	72.0	72.0	72.0	87	67.9	0	0	---	0.00	30.004 
05:45	72.0	72.0	72.0	88	68.2	0	0	---	0.00	30.001 
05:50	72.0	72.0	72.0	88	68.2	0	0	---	0.00	30.001 
05:55	71.8	71.8	71.8	88	68.0	0	0	---	0.00	30.001 
06:00	71.8	71.8	71.8	89	68.4	0	0	---	0.00	29.992 
06:05	71.8	71.8	71.8	89	68.4	0	0	---	0.00	29.992 
06:10	71.8	71.8	71.8	89	68.4	0	0	---	0.00	29.992 
06:15	71.8	71.8	71.8	89	68.4	0	0	---	0.00	29.985 
06:20	71.6	71.6	71.6	89	68.2	0	0	---	0.00	29.985 
06:25	71.6	71.6	71.6	90	68.5	0	0	---	0.00	29.985 
06:30	71.5	71.5	71.5	90	68.4	0	0	---	0.00	29.986 
06:35	71.5	71.5	71.5	90	68.4	0	0	---	0.00	29.986 
06:40	71.5	71.5	71.5	90	68.4	0	0	---	0.00	29.986 
06:45	71.5	71.5	71.5	90	68.4	0	0	---	0.00	29.985 
06:50	71.5	71.5	71.5	91	68.7	0	0	---	0.00	29.985 
06:55	71.5	71.5	71.5	91	68.7	0	0	---	0.00	29.985 
07:00	71.6	71.6	71.6	91	68.8	0	1	90	0.00	29.974 
07:05	71.8	71.8	71.8	91	69.0	0	0	---	0.00	29.974 
07:10	71.8	71.8	71.8	91	69.0	0	0	---	0.00	29.974 
07:15	72.1	72.1	72.1	91	69.3	0	1	90	0.00	29.973 
07:20	72.3	72.3	72.3	91	69.5	0	1	90	0.00	29.973 
07:25	72.7	72.7	72.7	90	69.6	0	1	90	0.00	29.973 
07:30	73.0	73.0	73.0	89	69.6	0	1	90	0.00	29.972 
07:35	73.3	73.3	73.3	88	69.5	0	1	90	0.00	29.972 
07:40	73.9	73.9	73.9	88	70.1	0	2	90	0.00	29.972 
07:45	74.2	74.2	74.2	87	70.1	0	0	---	0.00	29.969 
07:50	74.7	74.7	74.7	85	69.9	0	1	90	0.00	29.969 
07:55	75.1	75.1	75.2	84	69.9	0	1	90	0.00	29.969 
08:00	75.6	75.6	76.1	83	70.1	0	4	90	0.00	29.969 
08:05	76.1	76.1	77.0	82	70.2	0	0	---	0.00	29.969 
08:10	76.5	76.5	77.7	81	70.2	0	2	90	0.00	29.969 
08:15	76.8	76.8	78.2	80	70.1	0	2	90	0.00	29.974 
08:20	77.2	77.2	78.9	79	70.2	0	3	270	0.00	29.974 
08:25	77.9	77.9	80.1	78	70.5	0	2	270	0.00	29.974 
08:30	78.3	78.3	80.7	77	70.5	1	3	248	0.00	29.983 
08:35	78.8	78.8	81.5	76	70.6	0	2	248	0.00	29.983 
08:40	79.4	79.4	82.6	76	71.2	1	3	315	0.00	29.983 
08:45	79.9	79.9	83.3	74	70.8	0	4	90	0.00	29.982 
08:50	80.7	80.7	84.6	73	71.2	0	2	90	0.00	29.982 
08:55	80.7	80.7	84.4	72	70.8	1	3	90	0.00	29.982 
09:00	80.9	80.9	85.0	73	71.4	0	2	90	0.00	29.981 
09:05	81.2	81.2	85.0	70	70.5	0	2	68	0.00	29.981 
09:10	81.6	81.6	85.5	69	70.4	1	4	68	0.00	29.981 
09:15	81.8	81.8	86.1	70	71.0	0	2	270	0.00	29.985 
09:20	82.4	82.4	87.0	69	71.2	0	2	292	0.00	29.985 
09:25	82.8	82.8	87.7	69	71.6	1	3	292	0.00	29.985 
09:30	83.4	83.4	88.1	66	70.8	1	4	270	0.00	29.984 
09:35	84.0	84.0	89.2	66	71.4	0	3	338	0.00	29.984 
09:40	84.3	84.3	89.5	65	71.2	1	4	248	0.00	29.984 
09:45	85.1	85.1	90.1	62	70.6	0	2	248	0.00	29.981 
09:50	85.1	85.1	89.8	61	70.1	1	3	248	0.00	29.981 
09:55	85.1	85.1	90.8	64	71.5	1	3	338	0.00	29.981 
10:00	85.3	85.3	90.5	62	70.8	1	3	202	0.00	29.981 
10:05	85.5	85.5	90.2	60	70.0	1	5	292	0.00	29.981 
10:10	86.1	86.1	91.7	61	71.0	1	5	292	0.00	29.981 
10:15	86.3	86.3	91.3	59	70.2	2	7	270	0.00	29.979 
10:20	86.5	86.5	91.7	59	70.4	1	7	270	0.00	29.979 
10:25	86.7	86.7	91.3	57	69.6	2	6	248	0.00	29.979 
10:30	86.5	86.5	91.0	57	69.4	1	5	270	0.00	29.969 
10:35	86.3	86.3	90.9	58	69.7	2	6	270	0.00	29.969 
10:40	86.1	86.1	90.9	59	70.1	2	5	270	0.00	29.969 
10:45	86.5	86.5	91.7	59	70.4	1	3	270	0.00	29.977 
10:50	87.0	87.0	91.9	57	69.9	2	5	248	0.00	29.977 
10:55	87.4	87.4	92.2	56	69.7	1	3	248	0.00	29.977 
11:00	87.0	87.0	91.5	56	69.4	2	5	270	0.00	29.969 
11:05	86.7	86.7	91.3	57	69.6	2	5	270	0.00	29.969 
11:10	86.7	86.7	91.3	57	69.6	2	4	270	0.00	29.969 
11:15	87.0	87.0	91.9	57	69.9	2	6	270	0.00	29.968 
11:20	87.2	87.2	92.3	57	70.1	2	4	292	0.00	29.968 
11:25	88.0	88.0	93.8	57	70.8	1	3	270	0.00	29.968 
11:30	88.4	88.4	94.6	57	71.2	1	4	248	0.00	29.969 
11:35	88.8	88.8	94.1	54	70.0	2	5	270	0.00	29.969 
11:40	89.3	89.3	95.1	54	70.4	1	3	292	0.00	29.969 
11:45	89.5	89.5	95.5	54	70.6	2	4	270	0.00	29.965 
11:50	89.7	89.7	96.4	55	71.3	1	4	270	0.00	29.965 
11:55	89.9	89.9	96.8	55	71.5	2	5	270	0.00	29.965 
12:00	90.1	90.1	97.7	56	72.2	1	5	248	0.00	29.965 
12:05	90.3	90.3	98.2	56	72.4	1	4	90	0.00	29.965 
12:10	90.7	90.7	98.0	54	71.7	1	6	90	0.00	29.965 
12:15	91.2	91.2	99.0	54	72.2	1	4	248	0.00	29.965 
12:20	91.2	91.2	98.0	52	71.1	2	5	270	0.00	29.965 
12:25	91.2	91.2	98.0	52	71.1	1	7	248	0.00	29.965 
12:30	91.4	91.4	100.1	55	72.9	2	6	270	0.00	29.962 
12:35	91.4	91.4	98.9	53	71.8	1	4	90	0.00	29.962 
12:40	91.4	91.4	98.9	53	71.8	2	6	270	0.00	29.962 
12:45	91.6	91.6	99.9	54	72.6	2	5	90	0.00	29.953 
12:50	91.4	91.4	98.9	53	71.8	2	4	270	0.00	29.953 
12:55	91.4	91.4	99.5	54	72.4	2	5	292	0.00	29.953 
13:00	91.0	91.0	98.1	53	71.4	2	9	270	0.00	29.949 
13:05	90.7	90.7	98.5	55	72.3	1	8	270	0.00	29.949 
13:10	91.4	91.4	99.5	54	72.4	2	6	248	0.00	29.949 
13:15	91.8	91.8	100.4	54	72.7	1	5	270	0.00	29.938 
13:20	92.5	92.5	100.2	51	71.7	1	3	338	0.00	29.938 
13:25	92.9	92.9	101.1	51	72.1	2	5	270	0.00	29.938 
13:30	92.9	92.9	99.9	49	70.9	2	7	270	0.00	29.934 
13:35	92.5	92.5	99.6	50	71.1	2	5	270	0.00	29.934 
13:40	92.5	92.5	100.8	52	72.3	2	6	270	0.00	29.934 
13:45	92.7	92.7	100.0	50	71.3	2	5	270	0.00	29.933 
13:50	92.5	92.5	99.6	50	71.1	2	6	292	0.00	29.933 
13:55	92.1	92.1	99.9	52	71.9	2	4	292	0.00	29.933 
14:00	92.5	92.5	100.8	52	72.3	2	4	270	0.00	29.928 
14:05	92.7	92.7	100.6	51	71.9	2	4	270	0.00	29.928 
14:10	92.5	92.5	101.4	53	72.8	2	5	270	0.00	29.928 
14:15	92.7	92.7	100.0	50	71.3	3	5	270	0.00	29.917 
14:20	92.9	92.9	100.5	50	71.5	2	5	270	0.00	29.917 
14:25	93.2	93.2	101.1	50	71.7	2	5	270	0.00	29.917 
14:30	93.2	93.2	101.7	51	72.3	1	5	270	0.00	29.913 
14:35	93.4	93.4	102.2	51	72.5	1	3	248	0.00	29.913 
14:40	93.6	93.6	102.0	50	72.1	1	4	270	0.00	29.913 
14:45	94.0	94.0	102.9	50	72.5	1	5	270	0.00	29.904 
14:50	93.4	93.4	101.5	50	71.9	2	6	248	0.00	29.904 
14:55	92.7	92.7	100.6	51	71.9	1	4	270	0.00	29.904 
15:00	91.8	91.8	99.8	53	72.2	2	6	270	0.00	29.910 
15:05	91.2	91.2	99.0	54	72.2	1	5	270	0.00	29.910 
15:10	90.5	90.5	97.5	54	71.5	1	3	270	0.00	29.910 
15:15	90.1	90.1	97.2	55	71.7	2	5	292	0.00	29.917 
15:20	89.7	89.7	96.4	55	71.3	2	5	248	0.00	29.917 
15:25	89.3	89.3	96.0	56	71.5	2	4	270	0.00	29.917 
15:30	87.8	87.8	90.7	50	66.8	4	11	270	0.00	29.934 
15:35	84.7	84.7	88.1	58	68.3	4	9	270	0.01	29.934 
15:40	79.9	79.9	82.3	66	67.5	3	5	270	0.01	29.934 
15:45	78.3	78.3	80.4	70	67.7	3	6	270	0.01	29.946 
15:50	77.2	77.2	79.0	72	67.5	1	4	270	0.00	29.946 
15:55	76.8	76.8	78.5	73	67.5	1	3	270	0.00	29.946 
16:00	76.3	76.3	77.7	76	68.2	1	3	270	0.00	29.928 
16:05	75.8	75.8	76.9	78	68.4	1	3	248	0.00	29.928 
16:10	75.6	75.6	76.5	79	68.6	2	4	248	0.00	29.928 
16:15	75.3	75.3	75.9	81	69.1	1	3	248	0.00	29.930 
16:20	75.1	75.1	75.5	82	69.2	1	3	270	0.00	29.930 
16:25	74.7	74.7	74.7	82	68.8	0	2	270	0.01	29.930 
16:30	74.4	74.4	74.4	83	68.9	0	2	270	0.00	29.931 
16:35	74.0	74.0	74.0	84	68.8	0	1	270	0.01	29.931 
16:40	73.9	73.9	73.9	85	69.1	0	0	---	0.01	29.931 
16:45	73.7	73.7	73.7	87	69.6	0	1	270	0.01	29.932 
16:50	73.5	73.5	73.5	88	69.7	0	1	270	0.02	29.932 
16:55	73.3	73.3	73.3	89	69.9	0	1	270	0.01	29.932 
17:00	73.3	73.3	73.3	90	70.2	0	1	270	0.00	29.918 
17:05	73.7	73.7	73.7	90	70.6	0	2	270	0.01	29.918 
17:10	74.0	74.0	74.0	91	71.2	0	1	112	0.00	29.918 
17:15	75.1	75.1	74.1	91	72.3	0	1	112	0.00	29.897 
17:20	75.6	75.6	75.1	91	72.8	0	3	248	0.00	29.897 
17:25	75.8	75.8	75.8	89	72.3	0	2	248	0.00	29.897 
17:30	76.3	76.3	76.8	88	72.5	1	4	248	0.00	29.887 
17:35	77.0	77.0	78.4	84	71.8	1	6	270	0.00	29.887 
17:40	77.7	77.7	79.8	79	70.7	1	5	270	0.00	29.887 
17:45	78.1	78.1	80.4	76	69.9	1	4	248	0.00	29.883 
17:50	78.5	78.5	80.9	73	69.1	1	4	248	0.00	29.883 
17:55	78.5	78.5	80.9	74	69.5	1	4	270	0.00	29.883 
18:00	78.5	78.5	80.9	74	69.5	2	4	270	0.00	29.883 
18:05	78.5	78.5	80.9	74	69.5	1	4	270	0.00	29.883 
18:10	78.5	78.5	81.0	75	69.9	1	4	248	0.00	29.883 
18:15	78.6	78.6	81.1	75	70.0	1	3	292	0.00	29.885 
18:20	78.6	78.6	81.1	74	69.6	1	4	248	0.00	29.885 
18:25	78.6	78.6	81.1	74	69.6	1	4	248	0.00	29.885 
18:30	78.8	78.8	81.4	74	69.8	2	7	270	0.00	29.892 
18:35	78.8	78.8	81.3	73	69.4	1	4	270	0.00	29.892 
18:40	78.8	78.8	81.3	73	69.4	1	4	248	0.00	29.892 
18:45	78.6	78.6	81.1	74	69.6	1	4	270	0.00	29.896 
18:50	78.6	78.6	81.0	73	69.2	1	3	270	0.00	29.896 
18:55	78.8	78.8	81.3	73	69.4	1	4	270	0.00	29.896 
19:00	79.0	79.0	81.6	73	69.6	0	2	270	0.00	29.898 
19:05	79.2	79.2	82.0	73	69.8	0	3	270	0.00	29.898 
19:10	79.0	79.0	81.6	73	69.6	1	3	248	0.00	29.898 
19:15	79.0	79.0	81.7	74	70.0	1	3	270	0.00	29.895 
19:20	79.0	79.0	81.7	74	70.0	1	3	0	0.00	29.895 
19:25	78.8	78.8	81.4	74	69.8	1	3	270	0.00	29.895 
19:30	79.0	79.0	81.8	75	70.4	0	1	270	0.00	29.895 
19:35	78.8	78.8	81.5	75	70.2	1	3	270	0.00	29.895 
19:40	78.8	78.8	81.5	75	70.2	1	3	270	0.00	29.895 
19:45	78.8	78.8	81.5	75	70.2	1	3	270	0.00	29.898 
19:50	78.8	78.8	81.5	75	70.2	0	1	270	0.00	29.898 
19:55	78.6	78.6	81.1	75	70.0	1	3	270	0.00	29.898 
20:00	78.6	78.6	81.1	75	70.0	0	2	270	0.00	29.907 
20:05	78.5	78.5	81.0	76	70.3	0	2	270	0.00	29.907 
20:10	78.5	78.5	81.0	76	70.3	1	3	270	0.00	29.907 
20:15	78.3	78.3	80.7	76	70.1	0	2	270	0.00	29.907 
20:20	78.3	78.3	80.7	76	70.1	0	1	270	0.00	29.907 
20:25	78.3	78.3	80.7	77	70.5	1	4	270	0.00	29.907 
20:30	78.1	78.1	80.4	77	70.3	1	3	270	0.00	29.909 
20:35	78.1	78.1	80.4	77	70.3	1	3	270	0.00	29.909 
20:40	77.9	77.9	80.1	77	70.1	0	3	270	0.00	29.909 
20:45	77.9	77.9	80.1	77	70.1	0	3	270	0.00	29.909 
20:50	77.7	77.7	79.7	78	70.3	0	2	270	0.00	29.909 
20:55	77.6	77.6	79.6	77	69.8	0	3	270	0.00	29.909 
21:00	77.6	77.6	79.6	77	69.8	0	2	270	0.00	29.908 
21:05	77.4	77.4	79.3	77	69.6	0	2	270	0.00	29.908 
21:10	77.4	77.4	79.3	78	70.0	0	1	270	0.00	29.908 
21:15	77.4	77.4	79.3	78	70.0	0	1	270	0.00	29.906 
21:20	77.2	77.2	78.9	78	69.8	0	1	270	0.00	29.906 
21:25	77.2	77.2	78.9	78	69.8	0	1	270	0.00	29.906 
21:30	77.2	77.2	78.9	78	69.8	0	0	---	0.00	29.904 
21:35	77.0	77.0	78.6	78	69.6	0	2	270	0.00	29.904 
21:40	77.2	77.2	78.9	79	70.2	0	1	270	0.00	29.904 
21:45	77.0	77.0	78.6	79	70.0	0	2	270	0.00	29.921 
21:50	77.0	77.0	78.6	79	70.0	0	1	270	0.00	29.921 
21:55	76.8	76.8	78.2	80	70.1	0	0	---	0.00	29.921 
22:00	76.7	76.7	78.1	80	70.0	0	0	---	0.00	29.921 
22:05	76.7	76.7	78.0	81	70.4	0	0	---	0.00	29.921 
22:10	76.5	76.5	77.7	81	70.2	0	2	270	0.00	29.921 
22:15	76.3	76.3	77.4	81	70.0	0	0	---	0.00	29.920 
22:20	76.3	76.3	77.3	82	70.4	0	1	270	0.00	29.920 
22:25	76.1	76.1	77.0	82	70.2	0	0	---	0.00	29.920 
22:30	76.1	76.1	77.0	82	70.2	0	0	---	0.00	29.923 
22:35	76.0	76.0	76.8	82	70.1	0	0	---	0.00	29.923 
22:40	75.8	75.8	76.4	83	70.3	0	0	---	0.00	29.923 
22:45	75.6	75.6	76.1	83	70.1	0	0	---	0.00	29.926 
22:50	75.6	75.6	76.1	83	70.1	0	1	270	0.00	29.926 
22:55	75.6	75.6	76.0	84	70.4	0	1	270	0.00	29.926 
23:00	75.4	75.4	75.7	84	70.2	0	0	---	0.00	29.931 
23:05	75.4	75.4	75.7	84	70.2	0	1	270	0.00	29.931 
23:10	75.4	75.4	75.7	84	70.2	0	2	270	0.00	29.931 
23:15	75.6	75.6	76.0	84	70.4	0	2	270	0.00	29.924 
23:20	75.4	75.4	75.7	84	70.2	0	1	270	0.00	29.924 
23:25	75.4	75.4	75.7	84	70.2	0	1	270	0.00	29.924 
23:30	75.4	75.4	75.7	84	70.2	0	1	270	0.00	29.925 
23:35	75.3	75.3	75.5	84	70.1	0	2	270	0.00	29.925 
23:40	75.4	75.4	75.7	84	70.2	0	1	270	0.00	29.925 
23:45	75.4	75.4	75.7	84	70.2	0	2	270	0.00	29.928 
23:50	75.4	75.4	75.7	84	70.2	0	1	270	0.00	29.928 
23:55	75.4	75.4	75.7	84	70.2	0	1	270	0.00	29.928 

CoCoRaHS
IN-AL-39
A2 Web Hosting
Creative Commons License
GoDaddy
search engine by freefind advanced

loaded 2018-11-17 23:43:22 • last modified 2010-11-18 10:43:29
Privacy PolicyDisclaimer
• wx.awcolley.com is powered by PmWiki v.2002016 •
• all content (unless otherwise noted) © 2018 A W Colley